createdAt,value
2022-11-09T00:02:48.856Z,11.00
2022-11-09T00:17:50.746Z,10.90
2022-11-09T00:32:52.581Z,10.90
2022-11-09T00:47:54.475Z,11.00
2022-11-09T01:02:56.342Z,11.00
2022-11-09T01:17:58.187Z,10.80
2022-11-09T01:32:59.993Z,10.80
2022-11-09T01:48:12.197Z,10.70
2022-11-09T02:03:36.813Z,10.70
2022-11-09T02:18:45.226Z,10.70
2022-11-09T02:33:55.562Z,10.70
2022-11-09T02:48:57.436Z,10.10
2022-11-09T03:03:59.307Z,10.40
2022-11-09T03:19:01.152Z,9.40
2022-11-09T03:34:02.999Z,10.00
2022-11-09T03:49:04.998Z,9.40
2022-11-09T04:04:07.226Z,8.90
2022-11-09T04:19:09.087Z,9.00
2022-11-09T04:34:10.930Z,8.80
2022-11-09T04:49:12.760Z,8.40
2022-11-09T05:04:14.794Z,8.80
2022-11-09T05:19:16.724Z,9.10
2022-11-09T05:34:18.641Z,8.60
2022-11-09T05:49:20.493Z,8.60
2022-11-09T06:04:22.390Z,9.00
2022-11-09T06:19:24.247Z,9.20
2022-11-09T06:34:26.142Z,9.40
2022-11-09T06:49:28.080Z,9.10
2022-11-09T07:04:30.041Z,8.80
2022-11-09T07:19:31.946Z,9.10
2022-11-09T07:34:33.872Z,9.40
2022-11-09T07:49:35.829Z,9.80
2022-11-09T08:04:37.701Z,9.60
2022-11-09T08:19:39.613Z,10.50
2022-11-09T08:34:41.521Z,11.10
2022-11-09T08:49:44.382Z,13.00
2022-11-09T09:04:46.350Z,13.50
2022-11-09T09:19:50.157Z,13.90
2022-11-09T09:34:52.681Z,14.40
2022-11-09T09:49:56.561Z,14.40
2022-11-09T10:05:01.996Z,14.80
2022-11-09T10:20:28.744Z,14.60
2022-11-09T10:35:35.458Z,14.40
2022-11-09T10:50:52.540Z,15.00
2022-11-09T11:06:04.270Z,15.60
2022-11-09T11:21:18.432Z,15.80
2022-11-09T11:36:46.024Z,16.70
2022-11-09T11:52:20.778Z,16.30
2022-11-09T12:07:34.740Z,16.00
2022-11-09T12:22:50.635Z,16.70
2022-11-09T12:38:09.727Z,16.90
2022-11-09T12:53:12.226Z,16.80
2022-11-09T13:08:29.469Z,16.50
2022-11-09T13:23:59.113Z,16.30
2022-11-09T13:39:23.894Z,16.20
2022-11-09T13:54:37.417Z,15.80
2022-11-09T14:10:16.932Z,15.50
2022-11-09T14:25:22.613Z,15.10
2022-11-09T14:40:32.137Z,14.60
2022-11-09T14:55:37.180Z,13.90
2022-11-09T15:10:39.719Z,13.40
2022-11-09T15:25:41.618Z,13.00
2022-11-09T15:40:43.621Z,12.60
2022-11-09T15:55:45.658Z,12.20
2022-11-09T16:10:47.569Z,11.90
2022-11-09T16:25:49.470Z,11.70
2022-11-09T16:40:51.586Z,11.70
2022-11-09T16:55:53.694Z,11.60
2022-11-09T17:10:55.949Z,11.50
2022-11-09T17:26:05.479Z,11.40
2022-11-09T17:41:13.149Z,11.40
2022-11-09T17:56:15.059Z,11.20
2022-11-09T18:11:18.392Z,11.10
2022-11-09T18:26:20.344Z,10.90
2022-11-09T18:41:23.984Z,10.90
2022-11-09T18:56:25.980Z,10.80
2022-11-09T19:11:30.160Z,10.80
2022-11-09T19:26:32.360Z,10.40
2022-11-09T19:41:34.246Z,10.40
2022-11-09T19:56:37.295Z,10.30
2022-11-09T20:11:58.886Z,10.10
2022-11-09T20:27:00.779Z,9.60
2022-11-09T20:42:02.623Z,10.00
2022-11-09T20:57:04.468Z,9.80
2022-11-09T21:12:21.432Z,10.20
2022-11-09T21:27:47.632Z,10.40
2022-11-09T21:42:49.851Z,10.80
2022-11-09T21:57:51.775Z,10.90
2022-11-09T22:13:12.293Z,11.20
2022-11-09T22:28:14.183Z,11.20
2022-11-09T22:43:16.074Z,11.20
2022-11-09T22:58:17.927Z,11.40
2022-11-09T23:13:20.100Z,11.60
2022-11-09T23:28:23.068Z,11.80
2022-11-09T23:43:25.104Z,11.90
2022-11-09T23:58:27.357Z,11.90
